Главная страница
METAR-TAF:

METAR-TAF

Аэропорты :

Сен-Дени, Реюньон

широта: 20-53S, долгота: 055-31E, высота над уровнем моря: 21 м

Текущие метеонаблюдения

Эта сводка был подготовлена 32 минут назад, в 01:00 UTC
Ветер 4 Узел от юго-восточный
Температура 19°C
Влажность 73%
Давление 1018 hPa
Видимость 10 км и более

METAR: FMEE 240100Z AUTO 14004KT 9999 OVC088/// 19/14 Q1018 NOSIG

Время: 05:32 (01:32 UTC)

Прогноз

Эта сводка был подготовлена 2 часа и 32 минут назад, в 23:00 UTC
Прогноз действительный с 24-го 00 UTC до 25-го 06 UTC
Ветер 8 Узел от юго-юго-восточный
Видимость 10 км и более
небольшая облачность на высоте 2600 фута
Отдельные облака на высоте 4600 фута
изменения
С 24-го 04 UTC до 24-го 06 UTC
Ветер 18 Узел от восточно-юго-восточный с порывами до 28 Узел
изменения
С 24-го 15 UTC до 24-го 17 UTC
Ветер 10 Узел от восточно-юго-восточный

TAF: FMEE 232300Z 2400/2506 16008KT 9999 FEW026 SCT046 BECMG 2404/2406 12018G28KT BECMG 2415/2417 12010KT

Метеонаблюдения и прогнозы для более 4000 аэропортов (сводки METAR и TAF).

Имеющиеся станции представлены на карте желтыми и красными точками.

Чтобы увидеть название станции, наведите на нее мышь.

Затем щелкните, чтобы увидеть метеонаблюдения и метеопрогнозы.

Управление картой: чтобы увеличить масштаб, щелкните зеленые кнопки с черным крестиком; чтобы уменьшить масштаб, щелкните зеленую кнопку с тире; для просмотра соседних карт щелкайте зеленые стрелки.


METAR-TAF: